Main page
METAR-TAF:

METAR-TAF

Airports :

Yacuiba Airport

Yacuíba, Bolivia

latitude: 21-57S, longitude: 063-39W, elevation: 645 m

Current weather observation

The report was made 17 hours and 54 minutes ago, at 20:00 UTC
Wind 3 kt from the Southwest
Temperature 27°C
Humidity 39%
Pressure 1016 hPa
Visibility 10 km or more

METAR: SLYA 302000Z 22003KT 9999 NSC 27/12 Q1016

Time: 09:54 (13:54 UTC)

Forecast

The report was made 27 hours and 54 minutes ago, at 10:00 UTC
Forecast valid from 30 at 12 UTC to 01 at 12 UTC
Wind kt from the North
Visibility 10 km or more
Scattered clouds at a height of 2300 ft
Overcast at a height of 7000 ft
Becoming
from 30 at 14 UTC to 30 at 16 UTC
Wind 10 kt from the South/Southwest
Scattered clouds at a height of 7000 ft
Becoming
from 30 at 23 UTC to 01 at 01 UTC
Wind kt from the North

TAF: SLYA 301000Z 3012/0112 00000KT 9999 SCT023 OVC070 TX26/3019Z TN10 /0111Z BECMG 3014/3016 21010KT SCT070 BECMG 3023/0101 00000KT

Weather observations and forecasts of more than 4000 airports (METAR and TAF reports).

The available stations are represented by yellow and red dots on the map.

Hover mouse over dot to see the name of the station.

Then click to see weather observations and forecasts.

To change the map : click on the green buttons with a black cross to zoom in, on the green button with a dash to zoom out, or on the green arrows for adjacent maps.


METAR-TAF: